sensor_id;sensor_type;location;lat;lon;timestamp;pressure;altitude;pressure_sealevel;temperature;humidity
70015;BME280;57358;51.094;6.760;2022-11-15T00:00:55;100523.63;;;8.53;100.00
70015;BME280;57358;51.094;6.760;2022-11-15T00:03:24;100529.22;;;8.65;100.00
70015;BME280;57358;51.094;6.760;2022-11-15T00:05:52;100534.22;;;8.69;100.00
70015;BME280;57358;51.094;6.760;2022-11-15T00:08:19;100414.72;;;7.95;100.00
70015;BME280;57358;51.094;6.760;2022-11-15T00:10:56;100530.69;;;8.70;100.00
70015;BME280;57358;51.094;6.760;2022-11-15T00:13:23;100533.22;;;8.72;100.00
70015;BME280;57358;51.094;6.760;2022-11-15T00:15:49;100487.47;;;8.44;100.00
70015;BME280;57358;51.094;6.760;2022-11-15T00:18:16;100473.75;;;8.37;100.00
70015;BME280;57358;51.094;6.760;2022-11-15T00:20:43;100509.00;;;8.68;100.00
70015;BME280;57358;51.094;6.760;2022-11-15T00:23:09;100468.53;;;8.37;100.00
70015;BME280;57358;51.094;6.760;2022-11-15T00:25:36;100531.03;;;8.82;100.00
70015;BME280;57358;51.094;6.760;2022-11-15T00:28:02;100530.88;;;8.85;100.00
70015;BME280;57358;51.094;6.760;2022-11-15T00:30:29;100522.88;;;8.88;100.00
70015;BME280;57358;51.094;6.760;2022-11-15T00:32:56;100505.03;;;8.78;100.00
70015;BME280;57358;51.094;6.760;2022-11-15T00:35:23;100518.34;;;8.91;100.00
70015;BME280;57358;51.094;6.760;2022-11-15T00:37:49;100516.38;;;8.96;100.00
70015;BME280;57358;51.094;6.760;2022-11-15T00:40:18;100519.91;;;8.95;100.00
70015;BME280;57358;51.094;6.760;2022-11-15T00:42:45;100460.56;;;8.59;100.00
70015;BME280;57358;51.094;6.760;2022-11-15T00:45:12;100508.66;;;8.93;100.00
70015;BME280;57358;51.094;6.760;2022-11-15T00:47:38;100488.09;;;8.86;100.00
70015;BME280;57358;51.094;6.760;2022-11-15T00:50:05;100448.97;;;8.65;100.00
70015;BME280;57358;51.094;6.760;2022-11-15T00:52:32;100468.44;;;8.77;100.00
70015;BME280;57358;51.094;6.760;2022-11-15T00:54:58;100492.41;;;8.87;100.00
70015;BME280;57358;51.094;6.760;2022-11-15T00:57:25;100509.00;;;9.05;100.00
70015;BME280;57358;51.094;6.760;2022-11-15T00:59:51;100510.53;;;9.09;100.00
70015;BME280;57358;51.094;6.760;2022-11-15T01:02:17;100497.28;;;9.12;100.00
70015;BME280;57358;51.094;6.760;2022-11-15T01:04:44;100475.81;;;9.05;100.00
70015;BME280;57358;51.094;6.760;2022-11-15T01:07:11;100494.34;;;9.18;100.00
70015;BME280;57358;51.094;6.760;2022-11-15T01:09:37;100466.28;;;9.04;100.00
70015;BME280;57358;51.094;6.760;2022-11-15T01:12:04;100335.84;;;8.24;100.00
70015;BME280;57358;51.094;6.760;2022-11-15T01:14:30;100484.81;;;9.17;100.00
70015;BME280;57358;51.094;6.760;2022-11-15T01:16:57;100482.13;;;9.18;100.00
70015;BME280;57358;51.094;6.760;2022-11-15T01:19:23;100399.13;;;8.68;100.00
70015;BME280;57358;51.094;6.760;2022-11-15T01:21:50;100486.28;;;9.23;100.00
70015;BME280;57358;51.094;6.760;2022-11-15T01:24:17;100489.81;;;9.22;100.00
70015;BME280;57358;51.094;6.760;2022-11-15T01:26:43;100245.75;;;7.77;100.00
70015;BME280;57358;51.094;6.760;2022-11-15T01:29:09;100486.13;;;9.26;100.00
70015;BME280;57358;51.094;6.760;2022-11-15T01:31:36;100411.13;;;8.90;100.00
70015;BME280;57358;51.094;6.760;2022-11-15T01:34:02;100453.94;;;9.24;100.00
70015;BME280;57358;51.094;6.760;2022-11-15T01:36:29;100470.34;;;9.27;100.00
70015;BME280;57358;51.094;6.760;2022-11-15T01:38:59;100473.13;;;9.24;100.00
70015;BME280;57358;51.094;6.760;2022-11-15T01:41:29;100461.19;;;9.18;100.00
70015;BME280;57358;51.094;6.760;2022-11-15T01:47:24;100463.78;;;9.36;100.00
70015;BME280;57358;51.094;6.760;2022-11-15T01:49:56;100457.47;;;9.40;100.00
70015;BME280;57358;51.094;6.760;2022-11-15T01:52:26;100450.28;;;9.44;100.00
70015;BME280;57358;51.094;6.760;2022-11-15T01:57:28;100439.44;;;9.51;100.00
70015;BME280;57358;51.094;6.760;2022-11-15T01:59:55;100362.16;;;9.09;100.00
70015;BME280;57358;51.094;6.760;2022-11-15T02:02:23;100383.16;;;9.25;100.00
70015;BME280;57358;51.094;6.760;2022-11-15T02:04:50;100356.69;;;9.14;100.00
70015;BME280;57358;51.094;6.760;2022-11-15T02:07:18;100394.19;;;9.48;100.00
70015;BME280;57358;51.094;6.760;2022-11-15T02:09:46;100426.88;;;9.74;100.00
70015;BME280;57358;51.094;6.760;2022-11-15T02:12:16;100402.78;;;9.67;100.00
70015;BME280;57358;51.094;6.760;2022-11-15T02:14:48;100414.69;;;9.90;100.00
70015;BME280;57358;51.094;6.760;2022-11-15T02:17:30;100416.22;;;9.94;100.00
70015;BME280;57358;51.094;6.760;2022-11-15T02:25:37;100401.31;;;9.95;100.00
70015;BME280;57358;51.094;6.760;2022-11-15T02:28:28;100403.25;;;9.91;100.00
70015;BME280;57358;51.094;6.760;2022-11-15T02:33:42;100418.38;;;10.02;100.00
70015;BME280;57358;51.094;6.760;2022-11-15T02:36:34;100274.59;;;9.15;100.00
70015;BME280;57358;51.094;6.760;2022-11-15T02:39:11;100425.16;;;10.06;100.00
70015;BME280;57358;51.094;6.760;2022-11-15T02:41:52;100422.31;;;10.11;100.00
70015;BME280;57358;51.094;6.760;2022-11-15T02:44:25;100422.31;;;10.11;100.00
70015;BME280;57358;51.094;6.760;2022-11-15T02:47:02;100398.63;;;9.96;100.00
70015;BME280;57358;51.094;6.760;2022-11-15T02:49:46;100417.81;;;10.13;100.00
70015;BME280;57358;51.094;6.760;2022-11-15T02:52:21;100412.56;;;10.13;100.00
70015;BME280;57358;51.094;6.760;2022-11-15T02:54:56;100411.63;;;10.14;100.00
70015;BME280;57358;51.094;6.760;2022-11-15T03:00:11;100416.94;;;10.28;100.00
70015;BME280;57358;51.094;6.760;2022-11-15T03:05:23;100432.31;;;10.36;100.00
70015;BME280;57358;51.094;6.760;2022-11-15T03:09:02;100400.66;;;10.23;100.00
70015;BME280;57358;51.094;6.760;2022-11-15T03:13:24;100421.06;;;10.34;100.00
70015;BME280;57358;51.094;6.760;2022-11-15T03:16:09;100421.25;;;10.31;100.00
70015;BME280;57358;51.094;6.760;2022-11-15T03:18:41;100348.38;;;9.88;100.00
70015;BME280;57358;51.094;6.760;2022-11-15T03:21:11;100351.16;;;9.85;100.00
70015;BME280;57358;51.094;6.760;2022-11-15T03:23:39;100407.03;;;10.35;100.00
70015;BME280;57358;51.094;6.760;2022-11-15T03:26:11;100320.75;;;9.83;100.00
70015;BME280;57358;51.094;6.760;2022-11-15T03:28:53;100400.81;;;10.36;100.00
70015;BME280;57358;51.094;6.760;2022-11-15T03:31:22;100336.28;;;10.02;100.00
70015;BME280;57358;51.094;6.760;2022-11-15T03:34:29;100395.91;;;10.46;100.00
70015;BME280;57358;51.094;6.760;2022-11-15T03:36:56;100387.72;;;10.36;100.00
70015;BME280;57358;51.094;6.760;2022-11-15T03:39:23;100346.06;;;10.14;100.00
70015;BME280;57358;51.094;6.760;2022-11-15T03:41:57;100354.34;;;10.22;100.00
70015;BME280;57358;51.094;6.760;2022-11-15T03:47:09;100402.88;;;10.47;100.00
70015;BME280;57358;51.094;6.760;2022-11-15T03:49:42;100333.66;;;10.02;100.00
70015;BME280;57358;51.094;6.760;2022-11-15T03:52:10;100367.56;;;10.21;100.00
70015;BME280;57358;51.094;6.760;2022-11-15T03:54:51;100333.25;;;9.93;100.00
70015;BME280;57358;51.094;6.760;2022-11-15T03:57:18;100406.47;;;10.44;100.00
70015;BME280;57358;51.094;6.760;2022-11-15T03:59:45;100397.78;;;10.44;100.00
70015;BME280;57358;51.094;6.760;2022-11-15T04:02:11;100309.50;;;9.96;100.00
70015;BME280;57358;51.094;6.760;2022-11-15T04:04:38;100367.06;;;10.30;100.00
70015;BME280;57358;51.094;6.760;2022-11-15T04:07:05;100401.75;;;10.51;100.00
70015;BME280;57358;51.094;6.760;2022-11-15T04:09:31;100385.50;;;10.44;100.00
70015;BME280;57358;51.094;6.760;2022-11-15T04:11:58;100398.47;;;10.47;100.00
70015;BME280;57358;51.094;6.760;2022-11-15T04:14:24;100360.19;;;10.27;100.00
70015;BME280;57358;51.094;6.760;2022-11-15T04:16:51;100360.34;;;10.24;100.00
70015;BME280;57358;51.094;6.760;2022-11-15T04:19:17;100357.56;;;10.27;100.00
70015;BME280;57358;51.094;6.760;2022-11-15T04:22:07;100349.97;;;10.23;100.00
70015;BME280;57358;51.094;6.760;2022-11-15T04:24:53;100361.88;;;10.28;100.00
70015;BME280;57358;51.094;6.760;2022-11-15T04:27:19;100344.22;;;10.16;100.00
70015;BME280;57358;51.094;6.760;2022-11-15T04:29:45;100382.47;;;10.36;100.00
70015;BME280;57358;51.094;6.760;2022-11-15T04:32:12;100330.19;;;10.01;100.00
70015;BME280;57358;51.094;6.760;2022-11-15T04:34:38;100382.72;;;10.31;100.00
70015;BME280;57358;51.094;6.760;2022-11-15T04:37:05;100373.75;;;10.35;100.00
70015;BME280;57358;51.094;6.760;2022-11-15T04:39:43;100372.25;;;10.31;100.00
70015;BME280;57358;51.094;6.760;2022-11-15T04:42:10;100372.31;;;10.30;100.00
70015;BME280;57358;51.094;6.760;2022-11-15T04:44:36;100338.47;;;10.09;100.00
70015;BME280;57358;51.094;6.760;2022-11-15T04:47:03;100321.06;;;9.92;100.00
70015;BME280;57358;51.094;6.760;2022-11-15T04:49:29;100369.09;;;10.25;100.00
70015;BME280;57358;51.094;6.760;2022-11-15T04:51:56;100345.06;;;10.16;100.00
70015;BME280;57358;51.094;6.760;2022-11-15T04:54:22;100349.22;;;10.21;100.00
70015;BME280;57358;51.094;6.760;2022-11-15T04:56:49;100374.06;;;10.29;100.00
70015;BME280;57358;51.094;6.760;2022-11-15T04:59:15;100317.94;;;10.02;100.00
70015;BME280;57358;51.094;6.760;2022-11-15T05:01:42;100370.63;;;10.29;100.00
70015;BME280;57358;51.094;6.760;2022-11-15T05:04:10;100298.16;;;9.80;100.00
70015;BME280;57358;51.094;6.760;2022-11-15T05:06:50;100355.88;;;10.26;100.00
70015;BME280;57358;51.094;6.760;2022-11-15T05:09:18;100363.47;;;10.32;100.00
70015;BME280;57358;51.094;6.760;2022-11-15T05:11:45;100272.47;;;9.71;100.00
70015;BME280;57358;51.094;6.760;2022-11-15T05:14:12;100334.19;;;10.08;100.00
70015;BME280;57358;51.094;6.760;2022-11-15T05:16:39;100369.53;;;10.33;100.00
70015;BME280;57358;51.094;6.760;2022-11-15T05:19:06;100353.59;;;10.20;100.00
70015;BME280;57358;51.094;6.760;2022-11-15T05:21:32;100361.66;;;10.33;100.00
70015;BME280;57358;51.094;6.760;2022-11-15T05:23:59;100371.31;;;10.32;100.00
70015;BME280;57358;51.094;6.760;2022-11-15T05:26:26;100281.78;;;9.76;100.00
70015;BME280;57358;51.094;6.760;2022-11-15T05:28:53;100369.69;;;10.30;100.00
70015;BME280;57358;51.094;6.760;2022-11-15T05:31:21;100363.59;;;10.29;100.00
70015;BME280;57358;51.094;6.760;2022-11-15T05:33:49;100295.28;;;9.85;100.00
70015;BME280;57358;51.094;6.760;2022-11-15T05:38:48;100364.50;;;10.28;100.00
70015;BME280;57358;51.094;6.760;2022-11-15T05:41:17;100363.47;;;10.32;100.00
70015;BME280;57358;51.094;6.760;2022-11-15T05:43:44;100290.19;;;9.82;100.00
70015;BME280;57358;51.094;6.760;2022-11-15T05:46:12;100346.84;;;10.16;100.00
70015;BME280;57358;51.094;6.760;2022-11-15T05:48:42;100279.31;;;9.73;100.00
70015;BME280;57358;51.094;6.760;2022-11-15T05:51:11;100321.66;;;9.97;100.00
70015;BME280;57358;51.094;6.760;2022-11-15T05:53:39;100285.97;;;9.79;100.00
70015;BME280;57358;51.094;6.760;2022-11-15T05:56:06;100352.50;;;10.24;100.00
70015;BME280;57358;51.094;6.760;2022-11-15T05:58:36;100341.44;;;10.19;100.00
70015;BME280;57358;51.094;6.760;2022-11-15T06:01:03;100363.53;;;10.31;100.00
70015;BME280;57358;51.094;6.760;2022-11-15T06:03:29;100369.63;;;10.31;100.00
70015;BME280;57358;51.094;6.760;2022-11-15T06:05:57;100323.34;;;9.98;100.00
70015;BME280;57358;51.094;6.760;2022-11-15T06:08:23;100282.88;;;9.72;100.00
70015;BME280;57358;51.094;6.760;2022-11-15T06:10:49;100393.22;;;10.31;100.00
70015;BME280;57358;51.094;6.760;2022-11-15T06:13:16;100323.59;;;9.94;100.00
70015;BME280;57358;51.094;6.760;2022-11-15T06:15:42;100289.72;;;9.75;100.00
70015;BME280;57358;51.094;6.760;2022-11-15T06:18:09;100396.59;;;10.33;100.00
70015;BME280;57358;51.094;6.760;2022-11-15T06:20:35;100387.63;;;10.37;100.00
70015;BME280;57358;51.094;6.760;2022-11-15T06:23:03;100393.47;;;10.43;100.00
70015;BME280;57358;51.094;6.760;2022-11-15T06:25:31;100395.22;;;10.42;100.00
70015;BME280;57358;51.094;6.760;2022-11-15T06:27:58;100333.50;;;10.05;100.00
70015;BME280;57358;51.094;6.760;2022-11-15T06:30:25;100287.25;;;9.72;100.00
70015;BME280;57358;51.094;6.760;2022-11-15T06:33:01;100407.03;;;10.35;100.00
70015;BME280;57358;51.094;6.760;2022-11-15T06:35:29;100335.44;;;9.85;100.00
70015;BME280;57358;51.094;6.760;2022-11-15T06:37:56;100350.41;;;9.83;100.00
70015;BME280;57358;51.094;6.760;2022-11-15T06:40:27;100415.19;;;10.13;100.00
70015;BME280;57358;51.094;6.760;2022-11-15T06:42:58;100401.25;;;9.96;100.00
70015;BME280;57358;51.094;6.760;2022-11-15T06:45:25;100353.41;;;9.59;100.00
70015;BME280;57358;51.094;6.760;2022-11-15T06:47:52;100407.91;;;9.86;100.00
70015;BME280;57358;51.094;6.760;2022-11-15T06:50:19;100373.53;;;9.59;100.00
70015;BME280;57358;51.094;6.760;2022-11-15T06:52:45;100410.75;;;9.82;100.00
70015;BME280;57358;51.094;6.760;2022-11-15T06:55:12;100318.66;;;9.24;100.00
70015;BME280;57358;51.094;6.760;2022-11-15T06:57:46;100327.78;;;9.33;100.00
70015;BME280;57358;51.094;6.760;2022-11-15T07:00:14;100424.97;;;9.93;100.00
70015;BME280;57358;51.094;6.760;2022-11-15T07:02:41;100367.47;;;9.58;100.00
70015;BME280;57358;51.094;6.760;2022-11-15T07:05:07;100429.13;;;9.97;100.00
70015;BME280;57358;51.094;6.760;2022-11-15T07:07:34;100439.28;;;10.04;100.00
70015;BME280;57358;51.094;6.760;2022-11-15T07:10:00;100421.53;;;9.93;100.00
70015;BME280;57358;51.094;6.760;2022-11-15T07:12:26;100440.22;;;10.03;100.00
70015;BME280;57358;51.094;6.760;2022-11-15T07:14:53;100448.69;;;10.08;100.00
70015;BME280;57358;51.094;6.760;2022-11-15T07:17:19;100402.13;;;9.79;100.00
70015;BME280;57358;51.094;6.760;2022-11-15T07:19:46;100412.09;;;9.73;100.00
70015;BME280;57358;51.094;6.760;2022-11-15T07:22:12;100459.69;;;10.14;100.00
70015;BME280;57358;51.094;6.760;2022-11-15T07:24:39;100418.72;;;9.96;100.00
70015;BME280;57358;51.094;6.760;2022-11-15T07:27:05;100427.97;;;10.03;100.00
70015;BME280;57358;51.094;6.760;2022-11-15T07:29:32;100405.94;;;9.90;100.00
70015;BME280;57358;51.094;6.760;2022-11-15T07:32:02;100416.28;;;9.93;100.00
70015;BME280;57358;51.094;6.760;2022-11-15T07:34:28;100479.25;;;10.25;100.00
70015;BME280;57358;51.094;6.760;2022-11-15T07:36:54;100452.91;;;9.94;100.00
70015;BME280;57358;51.094;6.760;2022-11-15T07:39:24;100491.75;;;10.19;100.00
70015;BME280;57358;51.094;6.760;2022-11-15T07:41:50;100441.13;;;9.86;100.00
70015;BME280;57358;51.094;6.760;2022-11-15T07:44:37;100493.53;;;10.19;100.00
70015;BME280;57358;51.094;6.760;2022-11-15T07:47:04;100495.97;;;10.22;100.00
70015;BME280;57358;51.094;6.760;2022-11-15T07:49:30;100501.91;;;10.26;100.00
70015;BME280;57358;51.094;6.760;2022-11-15T07:51:57;100431.16;;;9.92;100.00
70015;BME280;57358;51.094;6.760;2022-11-15T07:54:23;100398.50;;;9.66;100.00
70015;BME280;57358;51.094;6.760;2022-11-15T07:56:49;100479.66;;;10.17;100.00
70015;BME280;57358;51.094;6.760;2022-11-15T07:59:18;100456.63;;;10.06;100.00
70015;BME280;57358;51.094;6.760;2022-11-15T08:01:45;100499.97;;;10.29;100.00
70015;BME280;57358;51.094;6.760;2022-11-15T08:04:12;100506.09;;;10.30;100.00
70015;BME280;57358;51.094;6.760;2022-11-15T08:06:39;100513.03;;;10.31;100.00
70015;BME280;57358;51.094;6.760;2022-11-15T08:09:08;100347.97;;;9.31;100.00
70015;BME280;57358;51.094;6.760;2022-11-15T08:11:34;100520.38;;;10.40;100.00
70015;BME280;57358;51.094;6.760;2022-11-15T08:14:01;100513.06;;;10.47;100.00
70015;BME280;57358;51.094;6.760;2022-11-15T08:16:28;100443.50;;;10.06;100.00
70015;BME280;57358;51.094;6.760;2022-11-15T08:18:55;100528.03;;;10.61;100.00
70015;BME280;57358;51.094;6.760;2022-11-15T08:21:22;100481.16;;;10.38;100.00
70015;BME280;57358;51.094;6.760;2022-11-15T08:23:48;100494.94;;;10.58;100.00
70015;BME280;57358;51.094;6.760;2022-11-15T08:26:15;100539.38;;;10.93;100.00
70015;BME280;57358;51.094;6.760;2022-11-15T08:28:41;100386.84;;;10.04;100.00
70015;BME280;57358;51.094;6.760;2022-11-15T08:31:15;100477.31;;;10.60;100.00
70015;BME280;57358;51.094;6.760;2022-11-15T08:33:44;100549.94;;;11.07;100.00
70015;BME280;57358;51.094;6.760;2022-11-15T08:36:13;100553.31;;;11.09;100.00
70015;BME280;57358;51.094;6.760;2022-11-15T08:38:41;100554.94;;;11.12;100.00
70015;BME280;57358;51.094;6.760;2022-11-15T08:41:14;100518.59;;;10.88;100.00
70015;BME280;57358;51.094;6.760;2022-11-15T08:43:43;100551.09;;;11.17;100.00
70015;BME280;57358;51.094;6.760;2022-11-15T08:46:12;100556.09;;;11.22;100.00
70015;BME280;57358;51.094;6.760;2022-11-15T08:48:39;100547.44;;;11.20;100.00
70015;BME280;57358;51.094;6.760;2022-11-15T08:51:06;100544.59;;;11.25;100.00
70015;BME280;57358;51.094;6.760;2022-11-15T08:53:33;100482.97;;;10.84;100.00
70015;BME280;57358;51.094;6.760;2022-11-15T08:56:00;100524.16;;;11.14;100.00
70015;BME280;57358;51.094;6.760;2022-11-15T08:58:28;100328.41;;;9.86;100.00
70015;BME280;57358;51.094;6.760;2022-11-15T09:00:55;100540.53;;;11.19;100.00
70015;BME280;57358;51.094;6.760;2022-11-15T09:03:21;100513.94;;;11.09;100.00
70015;BME280;57358;51.094;6.760;2022-11-15T09:05:48;100535.34;;;11.17;100.00
70015;BME280;57358;51.094;6.760;2022-11-15T09:08:14;100440.41;;;10.63;100.00
70015;BME280;57358;51.094;6.760;2022-11-15T09:11:08;100548.44;;;11.33;100.00
70015;BME280;57358;51.094;6.760;2022-11-15T09:13:36;100409.69;;;10.65;100.00
70015;BME280;57358;51.094;6.760;2022-11-15T09:16:03;100547.09;;;11.56;100.00
70015;BME280;57358;51.094;6.760;2022-11-15T09:18:30;100534.38;;;11.65;100.00
70015;BME280;57358;51.094;6.760;2022-11-15T09:20:59;100552.78;;;11.65;100.00
70015;BME280;57358;51.094;6.760;2022-11-15T09:23:28;100501.75;;;11.38;100.00
70015;BME280;57358;51.094;6.760;2022-11-15T09:26:00;100470.66;;;11.31;100.00
70015;BME280;57358;51.094;6.760;2022-11-15T09:28:28;100464.66;;;11.29;100.00
70015;BME280;57358;51.094;6.760;2022-11-15T09:31:00;100547.09;;;11.87;100.00
70015;BME280;57358;51.094;6.760;2022-11-15T09:33:27;100491.72;;;11.60;100.00
70015;BME280;57358;51.094;6.760;2022-11-15T09:35:59;100478.13;;;11.53;99.14
70015;BME280;57358;51.094;6.760;2022-11-15T09:38:26;100445.25;;;11.60;97.78
70015;BME280;57358;51.094;6.760;2022-11-15T09:46:34;100509.81;;;12.23;93.50
70015;BME280;57358;51.094;6.760;2022-11-15T09:49:04;100507.56;;;12.31;93.72
70015;BME280;57358;51.094;6.760;2022-11-15T09:52:06;100493.16;;;12.23;93.29
70015;BME280;57358;51.094;6.760;2022-11-15T09:54:43;100498.25;;;12.26;94.14
70015;BME280;57358;51.094;6.760;2022-11-15T09:57:30;100482.75;;;12.35;93.42
70015;BME280;57358;51.094;6.760;2022-11-15T10:05:23;100313.19;;;11.56;90.02
70015;BME280;57358;51.094;6.760;2022-11-15T10:08:13;100452.53;;;12.55;88.71
70015;BME280;57358;51.094;6.760;2022-11-15T10:10:49;100407.69;;;12.43;87.58
70015;BME280;57358;51.094;6.760;2022-11-15T10:13:39;100359.94;;;12.22;86.21
70015;BME280;57358;51.094;6.760;2022-11-15T10:22:31;100412.00;;;12.98;82.35
70015;BME280;57358;51.094;6.760;2022-11-15T10:25:00;100332.69;;;12.50;81.92
70015;BME280;57358;51.094;6.760;2022-11-15T10:27:32;100389.44;;;12.94;81.14
70015;BME280;57358;51.094;6.760;2022-11-15T10:30:00;100384.81;;;12.97;80.45
70015;BME280;57358;51.094;6.760;2022-11-15T10:32:30;100379.44;;;12.99;79.23
70015;BME280;57358;51.094;6.760;2022-11-15T10:35:16;100373.03;;;13.03;78.67
70015;BME280;57358;51.094;6.760;2022-11-15T10:37:43;100272.56;;;12.44;79.46
70015;BME280;57358;51.094;6.760;2022-11-15T10:40:24;100312.19;;;12.81;78.31
70015;BME280;57358;51.094;6.760;2022-11-15T10:43:17;100355.53;;;13.28;77.17
70015;BME280;57358;51.094;6.760;2022-11-15T10:45:50;100360.63;;;13.44;77.10
70015;BME280;57358;51.094;6.760;2022-11-15T10:48:20;100340.75;;;13.51;76.77
70015;BME280;57358;51.094;6.760;2022-11-15T10:50:49;100327.81;;;13.48;75.80
70015;BME280;57358;51.094;6.760;2022-11-15T10:53:29;100298.72;;;13.49;74.13
70015;BME280;57358;51.094;6.760;2022-11-15T10:56:07;100268.34;;;13.44;72.57
70015;BME280;57358;51.094;6.760;2022-11-15T10:58:43;100150.38;;;12.97;71.38
70015;BME280;57358;51.094;6.760;2022-11-15T11:03:38;100258.41;;;13.84;70.17
70015;BME280;57358;51.094;6.760;2022-11-15T11:06:17;100224.00;;;13.86;68.51
70015;BME280;57358;51.094;6.760;2022-11-15T11:08:59;100229.47;;;13.95;68.79
70015;BME280;57358;51.094;6.760;2022-11-15T11:11:46;100098.06;;;13.17;67.35
70015;BME280;57358;51.094;6.760;2022-11-15T11:14:23;100192.19;;;13.76;67.66
70015;BME280;57358;51.094;6.760;2022-11-15T11:20:02;100157.06;;;14.11;65.07
70015;BME280;57358;51.094;6.760;2022-11-15T11:23:01;100149.75;;;14.03;65.03
70015;BME280;57358;51.094;6.760;2022-11-15T11:34:27;100137.81;;;13.86;64.67
70015;BME280;57358;51.094;6.760;2022-11-15T11:37:12;100109.19;;;13.57;64.88
70015;BME280;57358;51.094;6.760;2022-11-15T11:42:42;100163.56;;;13.59;67.46
70015;BME280;57358;51.094;6.760;2022-11-15T11:45:31;100158.13;;;13.49;67.52
70015;BME280;57358;51.094;6.760;2022-11-15T11:48:12;100156.00;;;13.54;67.17
70015;BME280;57358;51.094;6.760;2022-11-15T11:50:42;100111.63;;;13.24;66.98
70015;BME280;57358;51.094;6.760;2022-11-15T11:53:36;100116.03;;;13.36;67.72
70015;BME280;57358;51.094;6.760;2022-11-15T11:56:20;100170.25;;;13.75;67.74
70015;BME280;57358;51.094;6.760;2022-11-15T13:11:43;100005.47;;;14.38;67.49
70015;BME280;57358;51.094;6.760;2022-11-15T13:14:45;100005.22;;;14.18;68.43
70015;BME280;57358;51.094;6.760;2022-11-15T13:19:52;99922.69;;;13.48;69.45
70015;BME280;57358;51.094;6.760;2022-11-15T13:22:51;100008.44;;;13.99;69.61
70015;BME280;57358;51.094;6.760;2022-11-15T13:28:03;100012.19;;;14.08;69.68
70015;BME280;57358;51.094;6.760;2022-11-15T13:30:36;100000.91;;;14.06;69.54
70015;BME280;57358;51.094;6.760;2022-11-15T13:33:23;99985.91;;;14.06;69.24
70015;BME280;57358;51.094;6.760;2022-11-15T13:35:55;99968.16;;;13.86;69.88
70015;BME280;57358;51.094;6.760;2022-11-15T13:40:52;99989.34;;;13.73;72.11
70015;BME280;57358;51.094;6.760;2022-11-15T13:48:45;100007.09;;;13.71;74.13
70015;BME280;57358;51.094;6.760;2022-11-15T13:54:01;99976.97;;;13.51;75.15
70015;BME280;57358;51.094;6.760;2022-11-15T13:56:30;100018.13;;;13.76;75.25
70015;BME280;57358;51.094;6.760;2022-11-15T13:58:57;100007.69;;;13.74;75.48
70015;BME280;57358;51.094;6.760;2022-11-15T14:01:26;100001.59;;;13.74;75.58
70015;BME280;57358;51.094;6.760;2022-11-15T14:03:58;100004.38;;;13.84;74.91
70015;BME280;57358;51.094;6.760;2022-11-15T14:06:27;99999.31;;;13.69;74.81
70015;BME280;57358;51.094;6.760;2022-11-15T14:11:27;99947.59;;;13.44;74.87
70015;BME280;57358;51.094;6.760;2022-11-15T14:14:02;99995.47;;;13.62;75.96
70015;BME280;57358;51.094;6.760;2022-11-15T14:16:34;99997.97;;;13.64;76.12
70015;BME280;57358;51.094;6.760;2022-11-15T14:19:03;100008.53;;;13.64;76.87
70015;BME280;57358;51.094;6.760;2022-11-15T14:21:30;99957.09;;;13.23;78.12
70015;BME280;57358;51.094;6.760;2022-11-15T14:24:16;100015.19;;;13.45;79.29
70015;BME280;57358;51.094;6.760;2022-11-15T14:26:43;100002.19;;;13.31;79.93
70015;BME280;57358;51.094;6.760;2022-11-15T14:29:27;100008.06;;;13.34;81.79
70015;BME280;57358;51.094;6.760;2022-11-15T14:32:14;100010.16;;;13.18;82.81
70015;BME280;57358;51.094;6.760;2022-11-15T14:34:42;100024.16;;;13.18;83.00
70015;BME280;57358;51.094;6.760;2022-11-15T14:37:24;100021.03;;;13.13;84.52
70015;BME280;57358;51.094;6.760;2022-11-15T14:39:52;99951.50;;;12.68;84.29
70015;BME280;57358;51.094;6.760;2022-11-15T14:42:23;100021.88;;;13.14;84.11
70015;BME280;57358;51.094;6.760;2022-11-15T14:44:51;100018.72;;;13.09;85.10
70015;BME280;57358;51.094;6.760;2022-11-15T14:47:18;100024.41;;;13.15;84.94
70015;BME280;57358;51.094;6.760;2022-11-15T14:49:46;99961.47;;;12.75;84.78
70015;BME280;57358;51.094;6.760;2022-11-15T14:54:55;99982.75;;;12.72;85.97
70015;BME280;57358;51.094;6.760;2022-11-15T14:57:22;100016.88;;;12.98;86.39
70015;BME280;57358;51.094;6.760;2022-11-15T14:59:49;99966.69;;;12.64;86.34
70015;BME280;57358;51.094;6.760;2022-11-15T15:02:24;100011.50;;;13.00;86.29
70015;BME280;57358;51.094;6.760;2022-11-15T15:04:54;99975.72;;;12.73;86.34
70015;BME280;57358;51.094;6.760;2022-11-15T15:07:21;99997.00;;;12.94;86.43
70015;BME280;57358;51.094;6.760;2022-11-15T15:09:51;99944.25;;;12.58;85.85
70015;BME280;57358;51.094;6.760;2022-11-15T15:12:36;100005.63;;;12.96;86.43
70015;BME280;57358;51.094;6.760;2022-11-15T15:15:09;100003.97;;;12.95;86.67
70015;BME280;57358;51.094;6.760;2022-11-15T15:17:39;99983.03;;;12.81;86.81
70015;BME280;57358;51.094;6.760;2022-11-15T15:20:07;99982.81;;;12.84;86.66
70015;BME280;57358;51.094;6.760;2022-11-15T15:22:34;99993.19;;;12.98;86.97
70015;BME280;57358;51.094;6.760;2022-11-15T15:25:02;100001.44;;;12.93;87.37
70015;BME280;57358;51.094;6.760;2022-11-15T15:27:30;99974.84;;;12.72;87.47
70015;BME280;57358;51.094;6.760;2022-11-15T15:29:57;99848.41;;;12.02;87.79
70015;BME280;57358;51.094;6.760;2022-11-15T15:32:24;99971.56;;;12.82;88.53
70015;BME280;57358;51.094;6.760;2022-11-15T15:34:53;99979.34;;;12.83;88.01
70015;BME280;57358;51.094;6.760;2022-11-15T15:37:25;99973.47;;;12.80;88.00
70015;BME280;57358;51.094;6.760;2022-11-15T15:39:56;99975.59;;;12.74;88.68
70015;BME280;57358;51.094;6.760;2022-11-15T15:42:28;99952.06;;;12.60;88.38